Time;durP1;ratioP1;P1;durP2;ratioP2;P2;SDS_P1;SDS_P2;PMS_P1;PMS_P2;Temp;Humidity;BMP_temperature;BMP_pressure;BME280_temperature;BME280_humidity;BME280_pressure;Samples;Min_cycle;Max_cycle;Signal;HPM_P1;HPM_P2
2022/03/25 00:00:12;;;;;;;4.45;3.80;;;25.10;29.90;;;;;;5072362;28;20071;-63
2022/03/25 00:02:43;;;;;;;6.05;4.45;;;25.20;30.00;;;;;;5073713;28;20098;-63
2022/03/25 00:05:12;;;;;;;3.72;3.42;;;25.20;30.00;;;;;;5076174;28;20043;-62
2022/03/25 00:07:39;;;;;;;4.35;3.80;;;25.20;30.00;;;;;;5074535;28;20040;-63
2022/03/25 00:10:08;;;;;;;4.13;3.72;;;25.10;30.00;;;;;;5080523;28;20063;-63
2022/03/25 00:12:35;;;;;;;4.68;3.85;;;25.10;30.00;;;;;;5083518;28;20083;-63
2022/03/25 00:15:02;;;;;;;3.78;3.38;;;25.10;30.00;;;;;;5071310;28;20131;-62
2022/03/25 00:17:29;;;;;;;3.78;3.47;;;25.10;30.50;;;;;;5068757;28;20131;-62
2022/03/25 00:19:56;;;;;;;5.78;4.05;;;25.10;30.00;;;;;;5068324;28;20645;-61
2022/03/25 00:22:25;;;;;;;4.45;3.92;;;25.10;30.00;;;;;;5072937;28;20036;-62
2022/03/25 00:24:52;;;;;;;6.38;3.70;;;25.10;30.00;;;;;;5064828;28;20071;-61
2022/03/25 00:27:19;;;;;;;3.95;3.55;;;25.00;30.00;;;;;;5070374;28;20098;-61
2022/03/25 00:29:48;;;;;;;4.13;3.83;;;25.00;30.00;;;;;;5064879;28;20075;-61
2022/03/25 00:32:16;;;;;;;3.58;3.22;;;25.00;30.00;;;;;;5070493;28;20043;-61
2022/03/25 00:34:43;;;;;;;3.15;2.95;;;25.00;30.00;;;;;;5071934;28;20415;-61
2022/03/25 00:37:11;;;;;;;4.07;3.67;;;25.00;30.00;;;;;;5067810;28;20040;-61
2022/03/25 00:39:40;;;;;;;4.28;3.75;;;25.00;30.00;;;;;;5070177;28;20059;-62
2022/03/25 00:42:09;;;;;;;4.68;3.95;;;24.90;30.00;;;;;;5074073;28;20040;-61
2022/03/25 00:44:36;;;;;;;4.78;3.30;;;24.90;30.00;;;;;;5072988;28;20049;-62
2022/03/25 00:47:03;;;;;;;2.90;2.70;;;24.90;30.00;;;;;;5074382;28;20067;-61
2022/03/25 00:49:30;;;;;;;5.10;3.28;;;24.90;30.00;;;;;;5073476;28;20044;-61
2022/03/25 00:51:58;;;;;;;3.00;2.75;;;24.90;30.00;;;;;;5069851;28;20048;-61
2022/03/25 00:54:27;;;;;;;7.60;4.93;;;24.90;30.00;;;;;;5077864;28;20040;-60
2022/03/25 00:56:55;;;;;;;3.85;3.55;;;24.90;30.00;;;;;;5070391;28;20066;-62
2022/03/25 00:59:24;;;;;;;3.90;3.47;;;24.90;30.00;;;;;;5073920;28;20036;-62
2022/03/25 01:01:52;;;;;;;4.32;3.70;;;24.90;30.00;;;;;;5076354;28;20044;-62
2022/03/25 01:04:21;;;;;;;5.43;3.53;;;24.90;30.00;;;;;;5078187;28;20055;-63
2022/03/25 01:06:48;;;;;;;5.63;3.45;;;24.90;30.00;;;;;;5070875;28;20047;-62
2022/03/25 01:09:15;;;;;;;3.70;3.33;;;24.90;30.00;;;;;;5062212;28;20075;-63
2022/03/25 01:11:43;;;;;;;3.78;3.00;;;24.90;30.50;;;;;;5070338;28;20052;-63
2022/03/25 01:14:11;;;;;;;3.90;3.17;;;24.80;30.00;;;;;;5079366;28;20044;-63
2022/03/25 01:16:38;;;;;;;3.47;3.28;;;24.80;30.00;;;;;;5083461;28;20048;-62
2022/03/25 01:19:06;;;;;;;6.45;3.70;;;24.80;30.00;;;;;;5072757;28;20127;-63
2022/03/25 01:21:33;;;;;;;5.32;3.63;;;24.80;30.00;;;;;;5078979;28;20044;-63
2022/03/25 01:24:00;;;;;;;4.38;3.58;;;24.80;30.00;;;;;;5074649;28;20049;-62
2022/03/25 01:26:28;;;;;;;3.53;3.00;;;24.80;30.00;;;;;;5075981;28;20040;-63
2022/03/25 01:28:55;;;;;;;3.67;3.30;;;24.80;30.00;;;;;;5078203;28;20044;-63
2022/03/25 01:31:24;;;;;;;4.53;4.13;;;24.80;30.10;;;;;;5077392;28;20040;-63
2022/03/25 01:33:51;;;;;;;3.63;3.20;;;24.70;30.00;;;;;;5069398;28;20056;-62
2022/03/25 01:36:19;;;;;;;4.38;4.05;;;24.70;30.00;;;;;;5074173;28;20044;-63
2022/03/25 01:38:46;;;;;;;5.28;4.10;;;24.70;30.00;;;;;;5076530;28;20041;-63
2022/03/25 01:41:17;;;;;;;4.18;2.97;;;24.70;30.00;;;;;;5079274;28;20039;-62
2022/03/25 01:43:45;;;;;;;4.38;2.95;;;24.70;30.00;;;;;;5080445;28;20388;-63
2022/03/25 01:46:12;;;;;;;5.18;4.05;;;24.70;30.00;;;;;;5078150;28;20043;-63
2022/03/25 01:48:41;;;;;;;5.85;2.97;;;24.70;30.00;;;;;;5077859;28;20107;-63
2022/03/25 01:51:09;;;;;;;5.63;3.50;;;24.70;30.00;;;;;;5076484;28;20068;-63
2022/03/25 01:53:36;;;;;;;4.65;3.33;;;24.70;30.00;;;;;;5074937;28;20076;-63
2022/03/25 01:56:05;;;;;;;5.43;3.03;;;24.70;30.00;;;;;;5077156;28;20048;-63
2022/03/25 01:58:33;;;;;;;5.45;4.30;;;24.60;30.00;;;;;;5071762;28;20048;-62
2022/03/25 02:01:04;;;;;;;3.25;2.95;;;24.70;30.00;;;;;;5070218;28;20037;-63
2022/03/25 02:03:32;;;;;;;3.92;3.20;;;24.60;30.00;;;;;;5074851;28;20056;-63
2022/03/25 02:06:00;;;;;;;4.75;4.35;;;24.60;30.00;;;;;;5072305;28;20137;-63
2022/03/25 02:08:27;;;;;;;3.67;3.33;;;24.60;30.00;;;;;;5071373;28;20051;-63
2022/03/25 02:10:55;;;;;;;3.72;3.38;;;24.60;30.00;;;;;;5070103;28;20036;-63
2022/03/25 02:13:23;;;;;;;4.93;3.53;;;24.60;30.00;;;;;;5074898;28;20036;-63
2022/03/25 02:15:56;;;;;;;4.63;2.75;;;24.60;30.00;;;;;;5081012;28;20357;-63
2022/03/25 02:18:24;;;;;;;6.70;3.67;;;24.60;30.00;;;;;;5080150;28;20040;-63
2022/03/25 02:20:51;;;;;;;3.50;3.00;;;24.60;30.00;;;;;;5080400;28;20485;-63
2022/03/25 02:23:23;;;;;;;3.25;2.95;;;24.60;30.00;;;;;;5071060;28;20123;-63
2022/03/25 02:25:52;;;;;;;4.13;2.63;;;24.50;30.00;;;;;;5080962;28;20055;-62
2022/03/25 02:28:21;;;;;;;3.17;2.47;;;24.50;30.00;;;;;;5074578;28;20036;-63
2022/03/25 02:30:49;;;;;;;3.70;3.50;;;24.60;30.00;;;;;;5072454;28;20067;-63
2022/03/25 02:33:16;;;;;;;3.70;3.33;;;24.60;30.00;;;;;;5072991;28;20040;-63
2022/03/25 02:35:44;;;;;;;4.28;3.38;;;24.50;30.00;;;;;;5075156;28;20036;-63
2022/03/25 02:38:13;;;;;;;3.85;3.47;;;24.50;30.00;;;;;;5081479;28;20125;-63
2022/03/25 02:40:42;;;;;;;3.00;2.78;;;24.50;30.00;;;;;;5069939;28;20105;-63
2022/03/25 02:43:11;;;;;;;3.38;2.78;;;24.50;30.00;;;;;;5074998;28;20102;-64
2022/03/25 02:45:44;;;;;;;3.47;3.20;;;24.50;30.00;;;;;;5099088;28;20040;-63
2022/03/25 02:48:13;;;;;;;3.63;3.33;;;24.50;30.00;;;;;;5068802;28;20508;-63
2022/03/25 02:50:41;;;;;;;2.80;2.60;;;24.50;30.00;;;;;;5076829;28;20256;-63
2022/03/25 02:53:08;;;;;;;3.85;3.25;;;24.50;30.00;;;;;;5080053;28;20037;-63
2022/03/25 02:55:35;;;;;;;3.90;3.60;;;24.40;30.00;;;;;;5073333;28;20040;-63
2022/03/25 02:58:04;;;;;;;3.90;3.55;;;24.40;30.00;;;;;;5081221;28;20048;-63
2022/03/25 03:00:31;;;;;;;4.28;3.88;;;24.40;30.00;;;;;;5079740;28;20048;-63
2022/03/25 03:03:00;;;;;;;3.83;3.40;;;24.40;30.00;;;;;;5076837;28;20048;-63
2022/03/25 03:05:28;;;;;;;5.35;3.13;;;24.40;30.00;;;;;;5074333;28;20052;-62
2022/03/25 03:07:55;;;;;;;4.40;2.63;;;24.40;30.00;;;;;;5074595;28;20093;-62
2022/03/25 03:10:23;;;;;;;5.95;3.58;;;24.40;30.00;;;;;;5069700;28;20036;-62
2022/03/25 03:12:50;;;;;;;3.90;3.60;;;24.40;30.00;;;;;;5077611;28;20689;-63
2022/03/25 03:15:20;;;;;;;5.30;3.53;;;24.40;30.00;;;;;;5072217;28;20044;-63
2022/03/25 03:17:48;;;;;;;3.70;3.35;;;24.40;30.00;;;;;;5074510;28;20049;-63
2022/03/25 03:20:19;;;;;;;2.83;2.63;;;24.40;30.00;;;;;;5076470;28;20743;-63
2022/03/25 03:22:46;;;;;;;3.30;3.00;;;24.40;30.00;;;;;;5071925;28;20041;-63
2022/03/25 03:25:13;;;;;;;3.05;2.85;;;24.40;30.00;;;;;;5079772;28;20400;-63
2022/03/25 03:27:41;;;;;;;3.28;3.05;;;24.40;30.00;;;;;;5075312;28;20075;-64
2022/03/25 03:30:11;;;;;;;5.38;3.47;;;24.40;30.00;;;;;;5077089;28;20615;-64
2022/03/25 03:32:40;;;;;;;3.67;3.38;;;24.30;30.00;;;;;;5072924;28;20053;-63
2022/03/25 03:35:08;;;;;;;3.55;3.25;;;24.30;30.00;;;;;;5075800;28;20094;-62
2022/03/25 03:37:41;;;;;;;3.55;3.20;;;24.30;30.00;;;;;;5073729;28;20073;-63
2022/03/25 03:40:10;;;;;;;3.00;2.75;;;24.40;30.70;;;;;;5064513;28;20128;-63
2022/03/25 03:42:37;;;;;;;5.07;4.25;;;24.30;30.00;;;;;;5073971;28;20048;-63
2022/03/25 03:45:06;;;;;;;2.40;2.20;;;24.30;30.00;;;;;;5067241;28;20044;-63
2022/03/25 03:47:33;;;;;;;3.53;3.00;;;24.30;30.00;;;;;;5074523;28;20048;-63
2022/03/25 03:50:02;;;;;;;4.82;3.10;;;24.30;30.00;;;;;;5073039;28;20416;-63
2022/03/25 03:52:30;;;;;;;4.07;3.08;;;24.30;30.00;;;;;;5078405;28;20055;-63
2022/03/25 03:54:57;;;;;;;3.35;3.05;;;24.20;30.00;;;;;;5071464;28;20708;-63
2022/03/25 03:57:43;;;;;;;3.67;3.33;;;24.30;30.00;;;;;;5069482;28;20117;-63
2022/03/25 04:00:13;;;;;;;3.35;2.67;;;24.20;30.00;;;;;;5073555;28;20062;-63
2022/03/25 04:02:42;;;;;;;4.28;3.67;;;24.20;30.00;;;;;;5075456;28;20049;-63
2022/03/25 04:05:11;;;;;;;4.25;3.88;;;24.20;30.00;;;;;;5071285;28;20562;-63
2022/03/25 04:07:42;;;;;;;4.22;3.13;;;24.20;30.00;;;;;;5082690;28;20052;-63
2022/03/25 04:10:10;;;;;;;3.92;3.08;;;24.20;30.00;;;;;;5069721;28;20123;-63
2022/03/25 04:12:37;;;;;;;3.00;2.75;;;24.20;30.10;;;;;;5078537;28;20054;-60
2022/03/25 04:15:08;;;;;;;2.95;2.72;;;24.20;30.10;;;;;;5071436;28;20467;-62
2022/03/25 04:17:35;;;;;;;3.03;2.83;;;24.20;30.10;;;;;;5072541;28;20040;-63
2022/03/25 04:20:02;;;;;;;3.50;3.20;;;24.20;30.10;;;;;;5069843;28;20132;-63
2022/03/25 04:22:31;;;;;;;3.92;3.63;;;24.20;30.10;;;;;;5067919;28;20381;-63
2022/03/25 04:24:58;;;;;;;5.22;2.97;;;24.10;30.00;;;;;;5066880;28;20033;-63
2022/03/25 04:27:25;;;;;;;5.78;3.22;;;24.20;30.10;;;;;;5072752;28;20488;-62
2022/03/25 04:29:55;;;;;;;4.90;3.85;;;24.10;30.00;;;;;;5076002;28;20036;-63
2022/03/25 04:32:22;;;;;;;4.97;3.58;;;24.10;30.10;;;;;;5070889;28;20409;-63
2022/03/25 04:34:49;;;;;;;3.75;2.65;;;24.10;30.10;;;;;;5070300;28;20059;-60
2022/03/25 04:37:16;;;;;;;3.95;3.50;;;24.10;30.10;;;;;;5069872;28;20048;-61
2022/03/25 04:39:45;;;;;;;4.25;3.03;;;24.10;30.10;;;;;;5079247;28;20036;-59
2022/03/25 04:42:12;;;;;;;3.47;2.65;;;24.10;30.10;;;;;;5077627;28;20128;-60
2022/03/25 04:44:39;;;;;;;4.68;4.07;;;24.10;30.10;;;;;;5070115;28;20571;-60
2022/03/25 04:47:07;;;;;;;3.42;3.13;;;24.10;30.10;;;;;;5077669;28;20098;-60
2022/03/25 04:49:35;;;;;;;3.78;3.25;;;24.10;30.10;;;;;;5070622;28;20473;-63
2022/03/25 04:52:03;;;;;;;2.75;2.55;;;24.10;30.10;;;;;;5068029;28;20048;-63
2022/03/25 04:54:30;;;;;;;4.18;2.97;;;24.10;30.10;;;;;;5073921;28;20040;-63
2022/03/25 04:56:59;;;;;;;2.50;2.33;;;24.10;30.10;;;;;;5072348;28;20051;-63
2022/03/25 04:59:26;;;;;;;4.22;2.95;;;24.10;30.20;;;;;;5067853;28;20122;-62
2022/03/25 05:01:53;;;;;;;5.72;3.33;;;24.00;30.10;;;;;;5068967;28;20068;-62
2022/03/25 05:04:21;;;;;;;4.32;2.67;;;24.10;30.20;;;;;;5064128;28;20056;-63
2022/03/25 05:06:48;;;;;;;2.55;2.45;;;24.10;30.20;;;;;;5078672;28;20586;-62
2022/03/25 05:09:17;;;;;;;3.83;3.53;;;24.00;30.10;;;;;;5074570;28;20048;-63
2022/03/25 05:11:45;;;;;;;4.97;3.40;;;24.00;30.10;;;;;;5075749;28;20698;-63
2022/03/25 05:14:14;;;;;;;3.67;3.33;;;24.00;30.20;;;;;;5071268;28;20041;-62
2022/03/25 05:16:41;;;;;;;4.35;3.63;;;24.00;30.20;;;;;;5066822;28;20582;-63
2022/03/25 05:19:09;;;;;;;4.05;3.28;;;24.00;30.20;;;;;;5070654;28;20170;-63
2022/03/25 05:21:37;;;;;;;3.47;3.17;;;24.00;30.20;;;;;;5066654;28;20122;-63
2022/03/25 05:24:06;;;;;;;3.00;2.72;;;24.00;30.20;;;;;;5068838;28;20036;-62
2022/03/25 05:26:33;;;;;;;3.30;3.03;;;24.00;30.20;;;;;;5071631;28;20048;-63
2022/03/25 05:29:00;;;;;;;4.90;3.58;;;24.00;30.30;;;;;;5064933;28;20059;-63
2022/03/25 05:31:29;;;;;;;3.40;2.47;;;24.00;30.20;;;;;;5076112;28;20047;-63
2022/03/25 05:33:56;;;;;;;4.28;3.58;;;24.00;30.20;;;;;;5077573;28;20042;-63
2022/03/25 05:36:23;;;;;;;3.33;3.10;;;24.00;30.20;;;;;;5076522;28;20048;-62
2022/03/25 05:38:51;;;;;;;3.80;3.40;;;23.90;30.20;;;;;;5082055;28;20643;-63
2022/03/25 05:41:18;;;;;;;4.40;3.53;;;23.90;30.20;;;;;;5075884;28;20043;-63
2022/03/25 05:43:46;;;;;;;3.63;2.90;;;24.00;30.20;;;;;;5079168;28;20044;-64
2022/03/25 05:46:14;;;;;;;3.65;3.33;;;23.90;30.20;;;;;;5071442;28;20512;-63
2022/03/25 05:48:43;;;;;;;3.75;3.17;;;23.90;30.20;;;;;;5085038;28;20048;-63
2022/03/25 05:51:11;;;;;;;5.38;3.50;;;23.90;30.20;;;;;;5069725;28;20045;-63
2022/03/25 05:53:38;;;;;;;4.55;3.17;;;23.90;30.30;;;;;;5071383;28;20477;-63
2022/03/25 05:56:06;;;;;;;4.05;3.03;;;23.90;30.20;;;;;;5068045;28;20094;-63
2022/03/25 05:58:33;;;;;;;3.40;3.10;;;23.90;30.30;;;;;;5072509;28;20044;-63
2022/03/25 06:01:01;;;;;;;3.60;2.72;;;23.90;30.20;;;;;;5070549;28;20044;-63
2022/03/25 06:03:30;;;;;;;3.50;2.88;;;23.90;30.20;;;;;;5077421;28;20043;-63
2022/03/25 06:05:59;;;;;;;6.05;3.40;;;23.90;30.20;;;;;;5075023;28;20053;-63
2022/03/25 06:08:26;;;;;;;3.25;3.00;;;23.90;30.30;;;;;;5082173;28;20055;-63
2022/03/25 06:10:53;;;;;;;3.42;2.85;;;23.90;30.30;;;;;;5080853;27;20048;-63
2022/03/25 06:13:20;;;;;;;3.83;3.40;;;23.80;30.20;;;;;;5078678;28;20044;-62
2022/03/25 06:15:47;;;;;;;3.80;2.65;;;23.90;30.30;;;;;;5070557;28;20066;-62
2022/03/25 06:18:16;;;;;;;2.83;2.60;;;23.80;30.20;;;;;;5077262;28;20898;-63
2022/03/25 06:20:43;;;;;;;4.70;3.25;;;23.90;30.30;;;;;;5074186;28;20055;-62
2022/03/25 06:23:13;;;;;;;2.90;2.45;;;23.90;30.30;;;;;;5076670;28;20072;-62
2022/03/25 06:25:40;;;;;;;4.25;2.92;;;23.80;30.20;;;;;;5070764;28;20045;-62
2022/03/25 06:28:08;;;;;;;4.20;3.42;;;23.80;30.20;;;;;;5072429;28;20522;-62
2022/03/25 06:30:39;;;;;;;3.42;2.60;;;23.80;30.30;;;;;;5071582;28;20051;-62
2022/03/25 06:33:09;;;;;;;3.50;3.20;;;23.80;30.20;;;;;;5070289;28;20076;-61
2022/03/25 06:35:38;;;;;;;2.63;2.42;;;23.80;30.20;;;;;;5073568;28;20047;-62
2022/03/25 06:38:07;;;;;;;4.35;3.42;;;23.80;30.20;;;;;;5076954;28;20040;-62
2022/03/25 06:40:36;;;;;;;3.25;2.95;;;23.80;30.30;;;;;;5073202;28;20123;-62
2022/03/25 06:43:04;;;;;;;3.28;2.65;;;23.80;30.20;;;;;;5077934;28;20078;-62
2022/03/25 06:45:31;;;;;;;5.85;2.58;;;23.80;30.30;;;;;;5079321;28;20515;-62
2022/03/25 06:47:59;;;;;;;4.10;2.95;;;23.80;30.30;;;;;;5084658;28;20075;-62
2022/03/25 06:50:27;;;;;;;5.18;3.40;;;23.80;30.30;;;;;;5071237;28;20048;-62
2022/03/25 06:52:57;;;;;;;2.50;2.30;;;23.80;30.30;;;;;;5074959;28;20051;-62
2022/03/25 06:55:25;;;;;;;6.65;3.67;;;23.80;30.20;;;;;;5084812;28;20416;-62
2022/03/25 06:57:55;;;;;;;3.63;3.20;;;23.80;30.30;;;;;;5067302;28;20029;-61
2022/03/25 07:00:24;;;;;;;2.90;2.72;;;23.80;30.30;;;;;;5075419;28;20500;-62
2022/03/25 07:02:52;;;;;;;3.42;3.13;;;23.80;30.30;;;;;;5080940;28;20076;-62
2022/03/25 07:05:19;;;;;;;6.03;3.35;;;23.80;30.30;;;;;;5068960;28;20523;-61
2022/03/25 07:07:47;;;;;;;3.50;3.20;;;23.80;30.30;;;;;;5074332;28;20512;-62
2022/03/25 07:10:16;;;;;;;3.95;3.58;;;23.80;30.30;;;;;;5072129;28;20036;-62
2022/03/25 07:12:45;;;;;;;2.78;2.58;;;23.90;30.30;;;;;;5078948;28;20082;-62
2022/03/25 07:15:14;;;;;;;3.63;3.33;;;23.80;30.20;;;;;;5084771;28;20500;-62
2022/03/25 07:17:43;;;;;;;3.88;2.80;;;23.80;30.30;;;;;;5074091;28;20043;-62
2022/03/25 07:20:13;;;;;;;3.95;3.03;;;23.90;30.30;;;;;;5077366;28;20111;-61
2022/03/25 07:22:40;;;;;;;3.70;3.50;;;23.80;30.20;;;;;;5081336;28;20055;-64
2022/03/25 07:25:09;;;;;;;4.25;3.85;;;23.80;30.20;;;;;;5067990;28;20116;-63
2022/03/25 07:27:36;;;;;;;5.60;3.35;;;23.90;30.30;;;;;;5077043;28;20145;-61
2022/03/25 07:30:05;;;;;;;3.15;2.85;;;23.80;30.20;;;;;;5068189;28;20071;-63
2022/03/25 07:32:34;;;;;;;4.45;3.55;;;23.80;30.20;;;;;;5076139;28;20044;-63
2022/03/25 07:35:02;;;;;;;4.35;3.65;;;23.80;30.20;;;;;;5071434;28;20117;-61
2022/03/25 07:37:29;;;;;;;3.75;3.40;;;23.80;30.20;;;;;;5076169;28;20040;-60
2022/03/25 07:39:57;;;;;;;4.28;2.67;;;23.80;30.20;;;;;;5077353;28;20040;-60
2022/03/25 07:42:24;;;;;;;4.50;3.22;;;23.80;30.20;;;;;;5075182;28;20148;-61
2022/03/25 07:44:51;;;;;;;9.45;3.60;;;23.90;30.20;;;;;;5075763;28;20037;-61
2022/03/25 07:47:18;;;;;;;3.63;3.28;;;23.90;30.20;;;;;;5069806;28;20451;-61
2022/03/25 07:49:47;;;;;;;4.75;3.15;;;23.90;30.20;;;;;;5073050;28;20058;-61
2022/03/25 07:52:15;;;;;;;5.00;3.03;;;23.90;30.20;;;;;;5051445;28;20319;-61
2022/03/25 07:54:42;;;;;;;4.25;2.28;;;23.90;30.20;;;;;;5075345;28;20744;-63
2022/03/25 07:57:09;;;;;;;4.18;2.85;;;23.90;30.20;;;;;;5054022;28;20048;-62
2022/03/25 07:59:37;;;;;;;5.57;3.20;;;23.90;30.80;;;;;;5071937;28;20041;-61
2022/03/25 08:02:05;;;;;;;4.32;3.17;;;23.90;30.20;;;;;;5077205;28;20119;-62
2022/03/25 08:04:32;;;;;;;4.10;2.38;;;23.90;30.10;;;;;;5067607;28;20051;-61
2022/03/25 08:07:01;;;;;;;2.95;2.47;;;23.90;30.20;;;;;;5069482;28;20146;-62
2022/03/25 08:09:29;;;;;;;3.65;2.72;;;23.90;30.10;;;;;;5081706;28;20093;-62
2022/03/25 08:11:56;;;;;;;7.70;2.85;;;23.90;30.10;;;;;;5073450;28;20121;-62
2022/03/25 08:14:24;;;;;;;5.75;3.13;;;23.90;30.10;;;;;;5077448;28;20040;-62
2022/03/25 08:16:51;;;;;;;3.97;2.35;;;23.90;30.10;;;;;;5072002;28;20055;-62
2022/03/25 08:19:19;;;;;;;4.57;2.85;;;23.90;30.10;;;;;;5071958;28;20070;-62
2022/03/25 08:21:46;;;;;;;3.50;3.13;;;24.00;30.10;;;;;;5066828;28;20048;-62
2022/03/25 08:29:46;;;;;;;4.18;2.72;;;23.90;30.00;;;;;;5069629;28;20098;-62
2022/03/25 08:32:16;;;;;;;6.00;3.00;;;23.90;30.00;;;;;;5072938;28;20563;-62
2022/03/25 08:34:44;;;;;;;2.72;2.53;;;24.00;30.10;;;;;;5072138;28;20504;-63
2022/03/25 08:37:11;;;;;;;3.90;3.58;;;24.00;30.00;;;;;;5070039;28;20039;-61
2022/03/25 08:39:40;;;;;;;3.65;2.92;;;24.00;30.00;;;;;;5065477;28;20113;-62
2022/03/25 08:42:08;;;;;;;3.92;2.90;;;24.00;30.00;;;;;;5073783;28;20127;-61
2022/03/25 08:44:36;;;;;;;4.43;3.20;;;24.00;30.00;;;;;;5076802;28;20053;-62
2022/03/25 08:47:03;;;;;;;3.63;3.38;;;24.00;30.00;;;;;;5074741;28;20131;-62
2022/03/25 08:49:32;;;;;;;4.65;3.42;;;24.00;30.00;;;;;;5077858;28;20090;-61
2022/03/25 08:51:59;;;;;;;5.22;3.85;;;24.00;30.00;;;;;;5082314;28;20045;-61
2022/03/25 08:54:27;;;;;;;3.15;2.83;;;24.00;30.00;;;;;;5074076;28;20047;-62
2022/03/25 08:56:55;;;;;;;4.50;3.17;;;24.00;30.00;;;;;;5070573;28;20052;-61
2022/03/25 08:59:23;;;;;;;4.18;3.15;;;24.00;30.00;;;;;;5076620;28;20028;-61
2022/03/25 09:01:50;;;;;;;3.90;2.90;;;24.00;30.00;;;;;;5077355;28;20044;-61
2022/03/25 09:04:17;;;;;;;3.70;3.33;;;24.10;30.00;;;;;;5068345;28;20052;-62
2022/03/25 09:06:44;;;;;;;4.65;3.42;;;24.10;30.00;;;;;;5068866;28;20114;-61
2022/03/25 09:09:12;;;;;;;3.28;3.00;;;24.10;30.00;;;;;;5074563;28;20076;-61
2022/03/25 09:11:40;;;;;;;8.38;4.68;;;24.10;30.00;;;;;;5080006;28;20055;-62
2022/03/25 09:14:08;;;;;;;6.82;3.95;;;24.10;29.90;;;;;;5079950;28;20044;-61
2022/03/25 09:16:36;;;;;;;6.40;3.17;;;24.10;29.90;;;;;;5075533;28;20045;-60
2022/03/25 09:19:03;;;;;;;6.63;4.07;;;24.10;29.90;;;;;;5074229;28;20064;-60
2022/03/25 09:21:30;;;;;;;4.32;3.97;;;24.10;29.90;;;;;;5072042;28;20045;-61
2022/03/25 09:23:58;;;;;;;3.92;2.92;;;24.10;29.90;;;;;;5076975;28;20052;-61
2022/03/25 09:26:25;;;;;;;5.97;3.88;;;24.10;29.90;;;;;;5075609;28;20040;-61
2022/03/25 09:28:52;;;;;;;4.40;3.45;;;24.10;29.90;;;;;;5075689;28;20036;-61
2022/03/25 09:31:21;;;;;;;7.07;3.40;;;24.10;29.80;;;;;;5070471;28;20496;-61
2022/03/25 09:33:48;;;;;;;4.25;3.85;;;24.20;29.90;;;;;;5072137;28;20536;-62
2022/03/25 09:36:16;;;;;;;6.82;5.28;;;24.20;29.90;;;;;;5079390;28;20079;-61
2022/03/25 09:38:43;;;;;;;4.30;3.92;;;24.20;29.80;;;;;;5073688;28;20067;-62
2022/03/25 09:41:11;;;;;;;5.25;3.63;;;24.20;29.80;;;;;;5073207;28;20169;-62
2022/03/25 09:43:40;;;;;;;5.55;4.38;;;24.20;30.30;;;;;;5078680;28;20549;-62
2022/03/25 09:46:07;;;;;;;6.05;4.13;;;24.20;29.80;;;;;;5070699;28;20044;-62
2022/03/25 09:48:36;;;;;;;6.70;4.03;;;24.20;29.80;;;;;;5070985;28;20127;-61
2022/03/25 09:51:03;;;;;;;5.32;3.92;;;24.30;29.80;;;;;;5075992;28;20047;-62
2022/03/25 09:53:31;;;;;;;6.68;3.88;;;24.30;29.80;;;;;;5078840;28;20046;-63
2022/03/25 09:55:59;;;;;;;3.83;3.45;;;24.30;29.70;;;;;;5074003;28;20068;-62
2022/03/25 09:58:28;;;;;;;5.45;3.80;;;24.30;29.70;;;;;;5072405;28;20142;-62
2022/03/25 10:00:55;;;;;;;6.90;5.53;;;24.30;29.70;;;;;;5075355;28;20074;-62
2022/03/25 10:03:27;;;;;;;6.75;4.65;;;24.30;29.70;;;;;;5075425;28;20040;-62
2022/03/25 10:05:58;;;;;;;4.70;3.25;;;24.40;29.70;;;;;;5085989;28;20070;-62
2022/03/25 10:08:30;;;;;;;10.48;3.70;;;24.30;29.60;;;;;;5080400;28;20118;-62
2022/03/25 10:10:57;;;;;;;7.60;4.38;;;24.40;29.70;;;;;;5078879;28;20805;-62
2022/03/25 10:13:24;;;;;;;5.35;3.97;;;24.40;29.70;;;;;;5074725;28;20070;-61
2022/03/25 10:15:51;;;;;;;6.13;3.15;;;24.40;29.60;;;;;;5071151;28;20054;-58
2022/03/25 10:18:19;;;;;;;7.88;4.13;;;24.40;30.00;;;;;;5079182;28;20127;-62
2022/03/25 10:20:46;;;;;;;4.00;3.67;;;24.40;29.60;;;;;;5072382;28;20110;-62
2022/03/25 10:23:17;;;;;;;6.82;3.88;;;24.40;29.50;;;;;;5075484;28;20048;-62
2022/03/25 10:25:47;;;;;;;5.32;4.20;;;24.50;29.60;;;;;;5074223;28;20040;-62
2022/03/25 10:28:26;;;;;;;7.90;4.63;;;24.50;29.50;;;;;;5073325;28;20051;-61
2022/03/25 10:30:55;;;;;;;6.28;4.28;;;24.50;29.50;;;;;;5073187;28;20086;-62
2022/03/25 10:33:29;;;;;;;5.97;4.78;;;24.50;29.50;;;;;;5084922;28;20117;-62
2022/03/25 10:35:59;;;;;;;4.93;3.92;;;24.60;29.50;;;;;;5075121;28;20053;-62
2022/03/25 10:38:41;;;;;;;6.53;4.18;;;24.60;29.50;;;;;;5072248;28;20048;-63
2022/03/25 10:41:10;;;;;;;9.25;4.82;;;24.60;29.40;;;;;;5077944;28;20292;-62
2022/03/25 10:43:48;;;;;;;8.95;5.20;;;24.60;29.40;;;;;;5077167;28;20124;-62
2022/03/25 10:46:27;;;;;;;8.73;6.05;;;24.60;29.40;;;;;;5079871;28;20047;-62
2022/03/25 10:48:55;;;;;;;10.95;7.53;;;24.70;29.30;;;;;;5067782;28;20041;-62
2022/03/25 10:51:22;;;;;;;9.25;6.20;;;24.60;29.30;;;;;;5078069;28;20140;-62
2022/03/25 10:53:58;;;;;;;10.35;6.25;;;24.70;29.20;;;;;;5076830;28;20086;-61
2022/03/25 10:56:25;;;;;;;7.07;6.37;;;24.80;29.20;;;;;;5071899;28;20036;-61
2022/03/25 10:58:54;;;;;;;8.98;5.95;;;24.80;29.20;;;;;;5070633;28;20036;-61
2022/03/25 11:01:22;;;;;;;5.38;4.88;;;24.80;29.10;;;;;;5072327;28;20081;-61
2022/03/25 11:03:50;;;;;;;9.80;6.07;;;24.80;29.10;;;;;;5068642;28;20032;-60
2022/03/25 11:06:18;;;;;;;5.13;4.38;;;24.80;29.00;;;;;;5073986;28;20064;-61
2022/03/25 11:08:46;;;;;;;5.68;4.03;;;24.90;29.10;;;;;;5072230;28;20050;-62
2022/03/25 11:11:18;;;;;;;5.43;4.90;;;24.90;29.20;;;;;;5079827;28;20509;-61
2022/03/25 11:13:46;;;;;;;7.63;4.93;;;24.90;29.10;;;;;;5081984;28;20040;-61
2022/03/25 11:16:17;;;;;;;6.22;3.97;;;24.90;29.10;;;;;;5075697;28;20036;-62
2022/03/25 11:18:45;;;;;;;4.90;3.55;;;25.00;29.10;;;;;;5082887;28;20047;-61
2022/03/25 11:21:14;;;;;;;4.93;3.78;;;25.00;29.10;;;;;;5085925;28;20404;-60
2022/03/25 11:23:46;;;;;;;3.42;3.17;;;25.10;29.10;;;;;;5074149;28;20058;-61
2022/03/25 11:26:19;;;;;;;3.22;2.72;;;25.10;29.10;;;;;;5072892;28;20055;-61
2022/03/25 11:28:47;;;;;;;6.10;4.60;;;25.20;29.20;;;;;;5076017;28;20393;-61
2022/03/25 11:31:14;;;;;;;4.80;4.03;;;25.20;29.20;;;;;;5081577;28;20207;-60
2022/03/25 11:34:09;;;;;;;3.53;2.97;;;25.20;29.10;;;;;;5072156;28;20076;-61
2022/03/25 11:36:40;;;;;;;3.50;3.08;;;25.30;29.10;;;;;;5076536;28;20155;-61
2022/03/25 11:39:20;;;;;;;5.32;3.25;;;25.30;29.10;;;;;;5073567;28;20052;-61
2022/03/25 11:41:48;;;;;;;4.95;4.07;;;25.30;29.10;;;;;;5070245;28;20076;-59
2022/03/25 11:44:25;;;;;;;4.35;3.70;;;25.30;29.10;;;;;;5081989;28;20040;-61
2022/03/25 11:47:17;;;;;;;3.33;3.13;;;25.40;29.10;;;;;;5072895;28;20415;-61
2022/03/25 11:49:45;;;;;;;4.13;3.08;;;25.40;29.00;;;;;;5078542;28;20480;-61
2022/03/25 11:52:33;;;;;;;6.15;2.88;;;25.50;29.10;;;;;;5070569;28;20037;-61
2022/03/25 11:55:02;;;;;;;4.53;3.33;;;25.50;29.10;;;;;;5063972;28;20553;-61
2022/03/25 11:57:33;;;;;;;4.13;3.83;;;25.50;29.10;;;;;;5072371;28;20114;-60
2022/03/25 12:00:02;;;;;;;8.20;3.38;;;25.60;29.10;;;;;;5076411;28;20053;-60
2022/03/25 12:02:37;;;;;;;10.45;3.35;;;25.60;29.00;;;;;;5079486;28;20503;-63
2022/03/25 12:05:06;;;;;;;4.30;2.42;;;25.70;29.10;;;;;;5069468;28;20495;-60
2022/03/25 12:07:34;;;;;;;4.43;4.03;;;25.70;29.00;;;;;;5071794;28;20054;-61
2022/03/25 12:10:03;;;;;;;3.47;3.17;;;25.70;29.00;;;;;;5069954;28;20060;-60
2022/03/25 12:12:55;;;;;;;3.70;3.40;;;25.80;29.00;;;;;;5071909;28;20056;-61
2022/03/25 12:15:41;;;;;;;4.03;3.60;;;25.80;28.90;;;;;;5070835;28;20044;-60
2022/03/25 12:18:41;;;;;;;3.50;3.20;;;25.90;28.90;;;;;;5073204;28;20041;-60
2022/03/25 12:21:27;;;;;;;4.35;2.92;;;25.90;28.90;;;;;;5075563;28;20036;-63
2022/03/25 12:23:56;;;;;;;3.58;2.83;;;25.90;28.90;;;;;;5059274;28;20514;-60
2022/03/25 12:26:31;;;;;;;3.42;3.03;;;26.00;28.90;;;;;;5072486;28;20036;-61
2022/03/25 12:29:00;;;;;;;4.53;2.88;;;26.00;28.90;;;;;;5071251;28;20040;-62
2022/03/25 12:31:29;;;;;;;3.78;3.55;;;26.10;28.90;;;;;;5080670;28;20072;-62
2022/03/25 12:34:00;;;;;;;5.93;3.00;;;26.20;28.90;;;;;;5070001;28;21070;-62
2022/03/25 12:36:36;;;;;;;3.83;2.38;;;26.20;28.90;;;;;;5081628;28;20040;-62
2022/03/25 12:39:05;;;;;;;7.95;2.72;;;26.20;28.80;;;;;;5084197;28;20419;-60
2022/03/25 12:41:33;;;;;;;3.05;2.80;;;26.30;29.30;;;;;;5076654;28;20044;-61
2022/03/25 12:44:03;;;;;;;2.72;2.50;;;26.40;28.90;;;;;;5073891;28;20048;-61
2022/03/25 12:46:31;;;;;;;5.68;3.58;;;26.40;28.80;;;;;;5066673;28;20041;-62
2022/03/25 12:49:03;;;;;;;1.73;1.63;;;26.40;28.80;;;;;;5075954;28;20079;-61
2022/03/25 12:51:31;;;;;;;4.03;2.85;;;26.50;28.80;;;;;;5072503;28;20040;-61
2022/03/25 12:53:58;;;;;;;2.78;2.53;;;26.50;28.80;;;;;;5072892;28;20098;-60
2022/03/25 12:56:26;;;;;;;2.60;2.13;;;26.60;28.80;;;;;;5070590;28;20053;-61
2022/03/25 12:58:53;;;;;;;3.05;2.13;;;26.60;28.80;;;;;;5069869;28;20044;-61